Time;durP1;ratioP1;P1;durP2;ratioP2;P2;SDS_P1;SDS_P2;PMS_P1;PMS_P2;Temp;Humidity;BMP_temperature;BMP_pressure;BME280_temperature;BME280_humidity;BME280_pressure;Samples;Min_cycle;Max_cycle;Signal;HPM_P1;HPM_P2
2023/12/13 00:00:26;;;;;;;7.17;2.00;;;10.20;99.90;;;;;;5052437;28;20474;-72
2023/12/13 00:02:53;;;;;;;9.27;1.97;;;10.10;99.90;;;;;;5052586;28;20572;-72
2023/12/13 00:05:20;;;;;;;5.40;1.10;;;;;;;;;;5054154;28;20483;-72
2023/12/13 00:07:46;;;;;;;2.83;1.33;;;10.00;99.90;;;;;;5054264;28;21005;-72
2023/12/13 00:10:13;;;;;;;3.07;1.40;;;10.00;99.90;;;;;;5054077;28;20511;-69
2023/12/13 00:12:40;;;;;;;3.20;1.30;;;9.90;99.90;;;;;;5053586;28;20473;-72
2023/12/13 00:15:09;;;;;;;6.43;1.10;;;9.80;99.90;;;;;;5055906;28;21143;-72
2023/12/13 00:17:36;;;;;;;10.07;1.77;;;9.80;99.90;;;;;;5051184;28;20474;-72
2023/12/13 00:20:05;;;;;;;6.27;1.57;;;9.80;99.90;;;;;;5054399;28;20474;-71
2023/12/13 00:22:32;;;;;;;7.13;1.53;;;9.80;99.90;;;;;;5055782;28;20466;-72
2023/12/13 00:24:59;;;;;;;8.27;1.87;;;9.80;99.90;;;;;;5058587;28;20480;-73
2023/12/13 00:27:26;;;;;;;14.53;1.73;;;9.70;99.90;;;;;;5035611;28;20479;-72
2023/12/13 00:29:53;;;;;;;3.43;1.40;;;9.80;99.90;;;;;;5036720;28;20518;-73
2023/12/13 00:32:23;;;;;;;2.57;1.20;;;9.70;99.90;;;;;;5035524;28;20511;-74
2023/12/13 00:34:49;;;;;;;7.47;1.30;;;9.80;99.90;;;;;;5035885;28;20837;-72
2023/12/13 00:37:17;;;;;;;5.60;1.53;;;9.80;99.90;;;;;;5036843;28;21193;-72
2023/12/13 00:39:44;;;;;;;2.80;1.30;;;9.70;99.90;;;;;;5037362;28;20597;-72
2023/12/13 00:42:12;;;;;;;4.53;1.43;;;9.70;99.90;;;;;;5040310;28;20479;-72
2023/12/13 00:44:40;;;;;;;5.10;1.73;;;9.80;99.90;;;;;;5034588;28;20498;-73
2023/12/13 00:47:06;;;;;;;5.10;1.50;;;9.70;99.90;;;;;;5035204;28;20864;-73
2023/12/13 00:49:35;;;;;;;8.63;1.40;;;9.80;99.90;;;;;;5056067;28;20482;-74
2023/12/13 00:52:02;;;;;;;3.63;1.47;;;9.80;99.90;;;;;;5056278;28;20993;-73
2023/12/13 00:54:29;;;;;;;2.33;1.30;;;9.80;99.90;;;;;;5055678;28;20483;-72
2023/12/13 00:56:56;;;;;;;9.90;1.97;;;9.90;99.90;;;;;;5057058;28;20548;-73
2023/12/13 00:59:23;;;;;;;5.73;1.47;;;9.90;99.90;;;;;;5056504;28;20475;-73
2023/12/13 01:01:50;;;;;;;16.80;2.40;;;9.90;99.90;;;;;;5056116;28;20548;-72
2023/12/13 01:04:16;;;;;;;2.77;1.33;;;9.70;99.90;;;;;;5054653;28;21133;-72
2023/12/13 01:06:45;;;;;;;5.63;1.77;;;9.70;99.90;;;;;;5056240;28;20536;-73
2023/12/13 01:09:12;;;;;;;11.27;1.63;;;9.60;99.90;;;;;;5056376;28;20498;-72
2023/12/13 01:11:38;;;;;;;21.00;2.83;;;9.50;99.90;;;;;;5055680;28;20560;-72
2023/12/13 01:14:05;;;;;;;5.03;1.53;;;9.50;99.90;;;;;;5053723;28;20479;-72
2023/12/13 01:16:33;;;;;;;9.33;1.97;;;9.50;99.90;;;;;;5038950;28;20492;-73
2023/12/13 01:19:00;;;;;;;4.97;1.37;;;9.60;99.90;;;;;;5036115;28;20927;-73
2023/12/13 01:21:28;;;;;;;8.10;1.77;;;9.60;99.90;;;;;;5035922;28;20503;-73
2023/12/13 01:23:58;;;;;;;4.83;1.13;;;9.70;99.90;;;;;;5035637;28;20468;-72
2023/12/13 01:26:24;;;;;;;4.63;1.83;;;9.60;99.90;;;;;;5039710;28;21019;-73
2023/12/13 01:28:51;;;;;;;13.83;1.97;;;9.60;99.90;;;;;;5057473;28;20543;-73
2023/12/13 01:31:19;;;;;;;8.70;1.40;;;;;;;;;;5059388;28;20483;-73
2023/12/13 01:33:45;;;;;;;4.23;1.70;;;9.80;99.90;;;;;;5059974;28;20487;-73
2023/12/13 01:36:12;;;;;;;12.50;1.60;;;9.70;99.90;;;;;;5062272;28;20953;-73
2023/12/13 01:38:39;;;;;;;3.70;1.10;;;9.80;99.90;;;;;;5065336;28;20490;-73
2023/12/13 01:41:07;;;;;;;4.43;1.20;;;9.80;99.90;;;;;;5060572;28;20471;-72
2023/12/13 01:43:34;;;;;;;6.03;1.40;;;9.80;99.90;;;;;;5056138;28;20571;-72
2023/12/13 01:46:01;;;;;;;7.77;1.57;;;9.90;99.90;;;;;;5060166;28;20499;-73
2023/12/13 01:48:29;;;;;;;3.47;1.40;;;9.80;99.90;;;;;;5061510;28;20832;-72
2023/12/13 01:50:56;;;;;;;7.33;1.67;;;9.80;99.90;;;;;;5063695;28;20478;-72
2023/12/13 01:53:25;;;;;;;5.33;1.40;;;9.80;99.90;;;;;;5062971;28;20528;-72
2023/12/13 01:55:53;;;;;;;5.13;1.40;;;9.80;99.90;;;;;;5053010;28;20552;-72
2023/12/13 01:58:22;;;;;;;5.73;1.70;;;9.80;99.90;;;;;;5073505;28;20585;-72
2023/12/13 02:00:52;;;;;;;6.10;1.37;;;9.90;99.90;;;;;;5051996;28;20981;-71
2023/12/13 02:03:20;;;;;;;5.67;2.70;;;9.80;99.90;;;;;;5072840;28;20487;-72
2023/12/13 02:05:47;;;;;;;9.57;2.00;;;9.90;99.90;;;;;;5061064;28;20495;-72
2023/12/13 02:08:14;;;;;;;4.10;1.20;;;9.90;99.90;;;;;;5066308;28;20474;-73
2023/12/13 02:10:42;;;;;;;15.70;1.67;;;9.90;99.90;;;;;;5064124;28;20587;-73
2023/12/13 02:13:09;;;;;;;6.90;1.70;;;10.00;99.90;;;;;;5059320;28;20487;-72
2023/12/13 02:15:38;;;;;;;8.07;1.40;;;10.00;99.90;;;;;;5057813;28;20482;-72
2023/12/13 02:18:07;;;;;;;16.93;2.07;;;10.00;99.90;;;;;;5061133;28;20547;-72
2023/12/13 02:20:34;;;;;;;11.07;1.73;;;10.00;99.90;;;;;;5059417;28;20915;-73
2023/12/13 02:23:02;;;;;;;2.20;1.70;;;10.00;99.90;;;;;;5060202;28;20767;-71
2023/12/13 02:25:34;;;;;;;5.63;1.77;;;10.00;99.90;;;;;;5059328;28;20483;-71
2023/12/13 02:28:02;;;;;;;11.63;1.83;;;10.00;99.90;;;;;;5060176;28;20482;-72
2023/12/13 02:30:29;;;;;;;3.53;1.63;;;9.90;99.90;;;;;;5060299;28;20487;-73
2023/12/13 02:32:56;;;;;;;4.90;1.77;;;10.00;99.90;;;;;;5059082;28;20494;-73
2023/12/13 02:35:23;;;;;;;4.00;1.50;;;9.90;99.90;;;;;;5054825;28;20475;-71
2023/12/13 02:37:50;;;;;;;13.43;2.23;;;9.80;99.90;;;;;;5062913;28;20935;-72
2023/12/13 02:40:19;;;;;;;6.60;1.40;;;9.70;99.90;;;;;;5062462;28;20483;-72
2023/12/13 02:42:46;;;;;;;21.13;2.70;;;9.60;99.90;;;;;;5059693;28;21152;-72
2023/12/13 02:45:13;;;;;;;11.83;1.90;;;9.60;99.90;;;;;;5060573;28;20478;-72
2023/12/13 02:47:42;;;;;;;6.73;1.60;;;9.60;99.90;;;;;;5055898;28;20476;-72
2023/12/13 02:50:09;;;;;;;10.17;1.67;;;9.70;99.90;;;;;;5059569;28;20909;-72
2023/12/13 02:52:36;;;;;;;4.10;1.40;;;9.70;99.90;;;;;;5057994;28;20479;-73
2023/12/13 02:55:04;;;;;;;12.07;2.13;;;9.60;99.90;;;;;;5061128;28;20479;-72
2023/12/13 02:57:33;;;;;;;9.00;2.20;;;9.60;99.90;;;;;;5060185;28;20479;-72
2023/12/13 02:59:59;;;;;;;22.83;2.90;;;9.60;99.90;;;;;;5059215;28;20478;-72
2023/12/13 03:02:27;;;;;;;4.20;1.80;;;9.70;99.90;;;;;;5055306;28;20535;-72
2023/12/13 03:04:53;;;;;;;7.03;2.00;;;9.80;99.90;;;;;;5059735;28;20494;-71
2023/12/13 03:07:20;;;;;;;4.83;1.73;;;9.80;99.90;;;;;;5061048;28;20568;-71
2023/12/13 03:09:47;;;;;;;11.23;2.50;;;9.80;99.90;;;;;;5058932;28;20490;-72
2023/12/13 03:12:14;;;;;;;11.60;1.77;;;;;;;;;;5052487;28;20486;-72
2023/12/13 03:14:43;;;;;;;8.60;1.97;;;9.80;99.90;;;;;;5068424;28;20491;-71
2023/12/13 03:17:09;;;;;;;5.37;1.70;;;9.90;99.90;;;;;;5059390;28;20580;-72
2023/12/13 03:19:36;;;;;;;24.33;2.93;;;9.80;99.90;;;;;;5058777;28;20738;-71
2023/12/13 03:22:03;;;;;;;9.67;3.47;;;9.80;99.90;;;;;;5058690;28;20479;-72
2023/12/13 03:24:30;;;;;;;11.23;2.77;;;9.80;99.90;;;;;;5059349;28;20487;-72
2023/12/13 03:26:57;;;;;;;9.93;2.07;;;9.80;99.90;;;;;;5060140;28;21233;-71
2023/12/13 03:29:24;;;;;;;10.10;1.90;;;9.90;99.90;;;;;;5059082;28;20583;-72
2023/12/13 03:31:52;;;;;;;8.00;2.10;;;10.00;99.90;;;;;;5060000;28;20894;-71
2023/12/13 03:34:19;;;;;;;3.13;1.63;;;10.10;99.90;;;;;;5048106;28;20490;-71
2023/12/13 03:36:47;;;;;;;8.80;1.70;;;10.10;99.90;;;;;;5064377;28;20478;-72
2023/12/13 03:39:14;;;;;;;6.10;2.07;;;10.20;99.90;;;;;;5055628;28;20527;-72
2023/12/13 03:41:40;;;;;;;2.80;1.57;;;10.30;99.90;;;;;;5063240;28;20524;-72
2023/12/13 03:44:08;;;;;;;7.60;1.67;;;10.30;99.90;;;;;;5062511;28;20550;-72
2023/12/13 03:46:35;;;;;;;6.33;2.20;;;;;;;;;;5058674;28;20898;-72
2023/12/13 03:49:03;;;;;;;8.20;2.67;;;10.30;99.90;;;;;;5059698;28;20886;-71
2023/12/13 03:51:30;;;;;;;11.83;1.93;;;10.20;99.90;;;;;;5059236;28;20483;-71
2023/12/13 03:53:57;;;;;;;12.17;2.33;;;10.20;99.90;;;;;;5061733;28;21251;-71
2023/12/13 03:56:24;;;;;;;8.87;2.13;;;10.20;99.90;;;;;;5064260;28;20475;-71
2023/12/13 03:58:51;;;;;;;5.27;2.10;;;10.10;99.90;;;;;;5061275;28;20501;-71
2023/12/13 04:01:18;;;;;;;13.83;1.97;;;10.00;99.90;;;;;;5064043;28;20470;-71
2023/12/13 04:03:45;;;;;;;12.73;2.10;;;9.90;99.90;;;;;;5063202;28;20471;-71
2023/12/13 04:06:13;;;;;;;7.23;2.50;;;9.90;99.90;;;;;;5063064;28;20544;-71
2023/12/13 04:08:40;;;;;;;4.37;2.47;;;9.80;99.90;;;;;;5054627;28;20490;-71
2023/12/13 04:11:07;;;;;;;7.83;2.90;;;9.70;99.90;;;;;;5069599;28;20491;-71
2023/12/13 04:13:33;;;;;;;10.67;2.50;;;9.70;99.90;;;;;;5061217;28;20540;-70
2023/12/13 04:16:00;;;;;;;5.37;1.90;;;9.70;99.90;;;;;;5065482;28;20893;-71
2023/12/13 04:18:27;;;;;;;6.50;3.50;;;9.70;99.90;;;;;;5041588;28;20508;-70
2023/12/13 04:20:54;;;;;;;10.40;2.70;;;9.60;99.90;;;;;;5063856;28;20499;-70
2023/12/13 04:23:23;;;;;;;8.13;3.03;;;9.50;99.90;;;;;;5042752;28;20483;-69
2023/12/13 04:25:50;;;;;;;6.17;2.43;;;9.60;99.90;;;;;;5032704;28;20479;-70
2023/12/13 04:28:16;;;;;;;16.13;2.50;;;9.60;99.90;;;;;;5071233;28;20533;-71
2023/12/13 04:30:43;;;;;;;16.27;2.50;;;9.60;99.90;;;;;;5042597;28;20487;-70
2023/12/13 04:33:11;;;;;;;11.87;2.97;;;9.70;99.90;;;;;;5038203;28;20663;-70
2023/12/13 04:35:38;;;;;;;14.60;2.93;;;9.70;99.90;;;;;;5064018;28;20509;-70
2023/12/13 04:38:05;;;;;;;3.90;1.80;;;9.70;99.90;;;;;;5047458;28;20501;-71
2023/12/13 04:40:33;;;;;;;7.80;2.37;;;9.90;99.90;;;;;;5058344;28;20476;-71
2023/12/13 04:43:00;;;;;;;2.77;2.00;;;9.90;99.90;;;;;;5042355;28;20494;-70
2023/12/13 04:45:27;;;;;;;5.80;2.20;;;9.90;99.90;;;;;;5042450;28;20499;-71
2023/12/13 04:47:54;;;;;;;6.53;2.13;;;9.90;99.90;;;;;;5042815;28;20471;-71
2023/12/13 04:50:21;;;;;;;5.00;2.00;;;9.90;99.90;;;;;;5043647;28;20985;-71
2023/12/13 04:52:49;;;;;;;7.03;2.03;;;9.90;99.90;;;;;;5042066;28;20548;-70
2023/12/13 04:55:15;;;;;;;9.87;2.77;;;9.90;99.90;;;;;;5043102;28;20472;-69
2023/12/13 04:57:44;;;;;;;4.43;2.20;;;9.90;99.90;;;;;;5042653;28;20554;-69
2023/12/13 05:00:12;;;;;;;5.37;1.70;;;9.90;99.90;;;;;;5039176;28;20923;-71
2023/12/13 05:02:40;;;;;;;4.53;1.90;;;9.90;99.90;;;;;;5041847;28;20471;-72
2023/12/13 05:05:08;;;;;;;6.17;2.13;;;10.00;99.90;;;;;;5060389;28;20483;-71
2023/12/13 05:07:35;;;;;;;3.10;1.77;;;10.10;99.90;;;;;;5039769;28;20467;-71
2023/12/13 05:10:01;;;;;;;7.23;2.00;;;10.20;99.90;;;;;;5042793;28;20531;-70
2023/12/13 05:12:29;;;;;;;5.70;2.10;;;;;;;;;;5041883;28;20487;-71
2023/12/13 05:14:57;;;;;;;6.97;2.20;;;10.30;99.90;;;;;;5042759;28;20491;-71
2023/12/13 05:17:24;;;;;;;2.27;1.60;;;10.30;99.90;;;;;;5041837;28;20507;-71
2023/12/13 05:19:51;;;;;;;6.73;2.00;;;10.30;99.90;;;;;;5041636;28;20557;-71
2023/12/13 05:22:17;;;;;;;11.63;1.80;;;10.30;99.90;;;;;;5038651;28;20525;-71
2023/12/13 05:24:44;;;;;;;6.60;2.40;;;10.20;99.90;;;;;;5039008;28;20894;-71
2023/12/13 05:27:11;;;;;;;3.90;1.80;;;10.30;99.90;;;;;;5041716;28;20475;-71
2023/12/13 05:29:38;;;;;;;7.40;1.77;;;10.30;99.90;;;;;;5042189;28;20486;-71
2023/12/13 05:32:07;;;;;;;8.13;2.17;;;10.30;99.90;;;;;;5046624;28;20937;-71
2023/12/13 05:34:33;;;;;;;9.70;2.50;;;10.40;99.90;;;;;;5049831;28;21015;-72
2023/12/13 05:37:05;;;;;;;8.00;2.63;;;10.40;99.90;;;;;;5051392;28;22615;-72
2023/12/13 05:39:32;;;;;;;10.00;2.10;;;10.20;99.90;;;;;;5052194;28;20478;-71
2023/12/13 05:41:59;;;;;;;8.83;2.60;;;10.20;99.90;;;;;;5059549;28;20536;-73
2023/12/13 05:44:26;;;;;;;9.30;2.10;;;10.20;99.90;;;;;;5047888;28;21002;-70
2023/12/13 05:46:52;;;;;;;4.50;1.63;;;10.10;99.90;;;;;;5057253;28;20478;-72
2023/12/13 05:49:21;;;;;;;6.23;1.90;;;10.00;99.90;;;;;;5051010;28;20487;-71
2023/12/13 05:51:47;;;;;;;4.33;2.80;;;10.00;99.90;;;;;;5045618;28;20483;-70
2023/12/13 05:54:14;;;;;;;4.57;1.87;;;9.90;99.90;;;;;;5048821;28;20474;-70
2023/12/13 05:56:41;;;;;;;4.23;1.90;;;9.90;99.90;;;;;;5053590;28;20479;-70
2023/12/13 05:59:10;;;;;;;10.90;1.93;;;9.80;99.90;;;;;;5045596;28;20587;-70
2023/12/13 06:01:37;;;;;;;3.57;1.53;;;9.90;99.90;;;;;;5049582;28;20995;-71
2023/12/13 06:04:04;;;;;;;3.90;1.77;;;9.80;99.90;;;;;;5048950;28;20537;-72
2023/12/13 06:06:33;;;;;;;8.77;2.10;;;9.90;99.90;;;;;;5041318;28;20475;-70
2023/12/13 06:09:00;;;;;;;5.40;2.17;;;;;;;;;;5038501;28;20534;-70
2023/12/13 06:11:28;;;;;;;10.07;2.80;;;9.80;99.90;;;;;;5040255;28;20491;-70
2023/12/13 06:13:55;;;;;;;2.23;1.47;;;9.80;99.90;;;;;;5040683;28;20843;-72
2023/12/13 06:16:22;;;;;;;5.53;2.07;;;9.80;99.90;;;;;;5040848;28;20483;-71
2023/12/13 06:18:49;;;;;;;4.60;1.80;;;9.90;99.90;;;;;;5040849;28;20575;-71
2023/12/13 06:21:16;;;;;;;7.63;1.60;;;9.90;99.90;;;;;;5039180;28;20479;-72
2023/12/13 06:23:44;;;;;;;4.30;1.60;;;9.90;99.90;;;;;;5039872;28;20944;-73
2023/12/13 06:26:11;;;;;;;5.43;1.67;;;10.00;99.90;;;;;;5044939;28;20472;-71
2023/12/13 06:28:38;;;;;;;2.53;1.40;;;10.00;99.90;;;;;;5043596;28;20476;-72
2023/12/13 06:31:06;;;;;;;2.47;1.57;;;10.00;99.90;;;;;;5047238;28;20545;-70
2023/12/13 06:33:33;;;;;;;10.50;2.17;;;10.00;99.90;;;;;;5059363;28;20551;-70
2023/12/13 06:35:59;;;;;;;10.73;1.93;;;10.10;99.90;;;;;;5060536;28;20482;-72
2023/12/13 06:38:26;;;;;;;2.70;1.50;;;10.10;99.90;;;;;;5060726;28;21075;-71
2023/12/13 06:40:55;;;;;;;4.33;1.47;;;10.10;99.90;;;;;;5059987;28;22061;-74
2023/12/13 06:43:21;;;;;;;4.57;1.87;;;10.10;99.90;;;;;;5060236;28;20563;-71
2023/12/13 06:45:48;;;;;;;22.23;2.90;;;10.00;99.90;;;;;;5060677;28;20910;-72
2023/12/13 06:48:15;;;;;;;3.70;1.53;;;10.10;99.90;;;;;;5059188;28;20528;-73
2023/12/13 06:50:42;;;;;;;8.33;1.70;;;10.20;99.90;;;;;;5060897;28;20608;-71
2023/12/13 06:53:09;;;;;;;9.17;1.77;;;10.10;99.90;;;;;;5059428;28;20473;-71
2023/12/13 06:55:36;;;;;;;9.90;1.90;;;10.10;99.90;;;;;;5060940;28;20482;-71
2023/12/13 06:58:04;;;;;;;6.70;1.30;;;10.00;99.90;;;;;;5060185;28;20518;-71
2023/12/13 07:00:31;;;;;;;10.23;1.90;;;10.00;99.90;;;;;;5059950;28;20541;-71
2023/12/13 07:02:58;;;;;;;6.13;2.07;;;10.10;99.90;;;;;;5058525;28;20544;-72
2023/12/13 07:05:24;;;;;;;13.70;1.77;;;10.00;99.90;;;;;;5060791;28;20475;-71
2023/12/13 07:07:51;;;;;;;15.23;2.17;;;10.00;99.90;;;;;;5059941;28;20479;-72
2023/12/13 07:10:18;;;;;;;2.20;1.27;;;10.00;99.90;;;;;;5059285;28;20553;-71
2023/12/13 07:12:46;;;;;;;11.53;1.90;;;10.00;99.90;;;;;;5058910;28;20482;-71
2023/12/13 07:15:15;;;;;;;3.73;1.70;;;10.00;99.90;;;;;;5061657;28;20477;-72
2023/12/13 07:17:42;;;;;;;6.50;1.03;;;10.00;99.90;;;;;;5060436;28;20476;-71
2023/12/13 07:20:11;;;;;;;20.63;2.50;;;9.90;99.90;;;;;;5059849;28;20471;-71
2023/12/13 07:22:39;;;;;;;4.53;1.20;;;9.90;99.90;;;;;;5056437;28;20463;-71
2023/12/13 07:25:06;;;;;;;11.60;1.83;;;9.80;99.90;;;;;;5058288;28;20479;-72
2023/12/13 07:27:33;;;;;;;10.83;1.80;;;9.90;99.90;;;;;;5061195;28;20478;-72
2023/12/13 07:30:00;;;;;;;4.67;1.30;;;9.80;99.90;;;;;;5059442;28;20491;-72
2023/12/13 07:32:29;;;;;;;3.23;1.40;;;9.90;99.90;;;;;;5058338;28;20826;-72
2023/12/13 07:34:55;;;;;;;8.60;1.70;;;9.90;99.90;;;;;;5056144;28;21075;-72
2023/12/13 07:37:22;;;;;;;2.43;1.70;;;9.90;99.90;;;;;;5060121;28;20544;-72
2023/12/13 07:39:49;;;;;;;8.27;1.73;;;9.90;99.90;;;;;;5053894;28;20540;-72
2023/12/13 07:42:16;;;;;;;22.13;3.43;;;9.90;99.90;;;;;;5057550;28;21100;-71
2023/12/13 07:44:45;;;;;;;3.50;1.40;;;9.80;99.90;;;;;;5042986;28;20493;-71
2023/12/13 07:47:12;;;;;;;4.17;1.93;;;9.80;99.90;;;;;;5040315;28;20814;-71
2023/12/13 07:49:40;;;;;;;3.80;1.50;;;9.80;99.90;;;;;;5036872;28;20475;-71
2023/12/13 07:52:07;;;;;;;5.10;2.00;;;9.70;99.90;;;;;;5052466;28;20522;-71
2023/12/13 07:54:34;;;;;;;25.30;3.00;;;9.80;99.90;;;;;;5029207;28;20489;-72
2023/12/13 07:57:01;;;;;;;7.93;2.10;;;9.80;99.90;;;;;;5034750;28;20942;-72
2023/12/13 07:59:27;;;;;;;8.53;2.03;;;9.80;99.90;;;;;;5049778;28;20473;-71
2023/12/13 08:01:54;;;;;;;5.60;1.90;;;9.70;99.90;;;;;;5061168;28;20491;-71
2023/12/13 08:04:21;;;;;;;6.63;1.80;;;9.80;99.90;;;;;;5042069;28;20534;-71
2023/12/13 08:06:50;;;;;;;4.23;2.03;;;9.80;99.90;;;;;;5039771;28;20496;-70
2023/12/13 08:09:19;;;;;;;8.40;2.93;;;9.70;99.90;;;;;;5035772;28;20486;-71
2023/12/13 08:11:47;;;;;;;3.50;1.60;;;9.70;99.90;;;;;;5039061;28;20491;-71
2023/12/13 08:14:14;;;;;;;5.30;2.30;;;9.70;99.90;;;;;;5049655;28;20478;-70
2023/12/13 08:16:42;;;;;;;12.20;3.60;;;9.50;99.90;;;;;;5034816;28;20910;-70
2023/12/13 08:19:08;;;;;;;4.67;2.40;;;9.70;99.90;;;;;;5045733;28;20479;-70
2023/12/13 08:21:40;;;;;;;9.13;2.60;;;9.70;99.90;;;;;;5035614;28;20479;-73
2023/12/13 08:24:10;;;;;;;2.30;1.50;;;9.70;99.90;;;;;;5038472;28;20536;-70
2023/12/13 08:26:36;;;;;;;7.00;3.10;;;9.70;99.90;;;;;;5037382;28;20472;-69
2023/12/13 08:29:04;;;;;;;20.00;3.20;;;9.80;99.90;;;;;;5040706;28;21055;-71
2023/12/13 08:31:31;;;;;;;7.17;2.10;;;9.90;99.90;;;;;;5036328;28;20533;-70
2023/12/13 08:33:58;;;;;;;9.63;1.90;;;9.90;99.90;;;;;;5027480;28;20893;-73
2023/12/13 08:36:25;;;;;;;12.43;2.80;;;9.90;99.90;;;;;;5067100;28;21072;-70
2023/12/13 08:38:52;;;;;;;6.97;2.10;;;10.00;99.90;;;;;;5039151;28;20494;-70
2023/12/13 08:41:20;;;;;;;8.37;2.10;;;10.10;99.90;;;;;;5043091;28;20525;-71
2023/12/13 08:43:47;;;;;;;7.87;3.17;;;10.10;99.90;;;;;;5048914;28;20881;-70
2023/12/13 08:46:14;;;;;;;1.70;1.03;;;10.20;99.90;;;;;;5051412;28;21225;-69
2023/12/13 08:48:41;;;;;;;8.33;2.13;;;10.20;99.90;;;;;;5049751;28;22080;-71
2023/12/13 08:51:08;;;;;;;6.43;2.13;;;10.20;99.90;;;;;;5046069;28;20474;-69
2023/12/13 08:53:34;;;;;;;3.90;2.20;;;10.30;99.90;;;;;;5042888;28;20484;-71
2023/12/13 08:56:01;;;;;;;5.40;3.10;;;10.30;99.90;;;;;;5040474;28;20891;-70
2023/12/13 08:58:29;;;;;;;5.50;1.73;;;10.30;99.90;;;;;;5046305;28;20471;-71
2023/12/13 09:00:56;;;;;;;4.77;2.60;;;10.40;99.90;;;;;;5042332;28;20541;-71
2023/12/13 09:03:23;;;;;;;28.33;4.13;;;10.30;99.90;;;;;;5042126;28;20550;-71
2023/12/13 09:05:50;;;;;;;2.77;1.30;;;10.40;99.90;;;;;;5043071;28;20483;-71
2023/12/13 09:08:17;;;;;;;11.10;3.50;;;10.40;99.90;;;;;;5043216;28;20566;-72
2023/12/13 09:10:43;;;;;;;14.73;3.17;;;10.50;99.90;;;;;;5041019;28;20642;-70
2023/12/13 09:13:10;;;;;;;13.57;3.87;;;10.40;99.90;;;;;;5038077;28;20486;-71
2023/12/13 09:15:38;;;;;;;4.67;2.10;;;10.40;99.90;;;;;;5043286;28;20582;-72
2023/12/13 09:18:05;;;;;;;5.90;2.70;;;10.50;99.90;;;;;;5062533;28;20508;-71
2023/12/13 09:20:32;;;;;;;14.20;3.73;;;10.50;99.90;;;;;;5055217;28;20471;-71
2023/12/13 09:22:59;;;;;;;4.17;2.57;;;10.60;99.90;;;;;;5058492;28;20897;-71
2023/12/13 09:25:26;;;;;;;4.43;2.87;;;10.70;99.90;;;;;;5045824;28;20485;-69
2023/12/13 09:27:52;;;;;;;4.00;2.10;;;10.90;99.90;;;;;;5035041;28;20480;-72
2023/12/13 09:30:19;;;;;;;4.63;2.10;;;11.00;99.90;;;;;;5041385;28;20496;-72
2023/12/13 09:32:48;;;;;;;5.10;2.40;;;11.10;99.90;;;;;;5043159;28;20466;-71
2023/12/13 09:35:15;;;;;;;5.60;2.13;;;11.30;99.90;;;;;;5052688;28;20510;-70
2023/12/13 09:37:42;;;;;;;8.83;1.93;;;11.20;99.90;;;;;;5053398;28;20489;-72
2023/12/13 09:40:15;;;;;;;5.07;1.77;;;11.20;99.90;;;;;;5049310;28;20486;-71
2023/12/13 09:42:45;;;;;;;11.30;3.13;;;11.20;99.90;;;;;;5041742;28;20490;-70
2023/12/13 09:45:16;;;;;;;3.83;2.17;;;11.30;99.90;;;;;;5042355;28;20517;-70
2023/12/13 09:47:43;;;;;;;7.83;2.47;;;11.30;99.90;;;;;;5042360;28;20606;-71
2023/12/13 09:50:12;;;;;;;4.03;1.40;;;11.30;99.90;;;;;;5041431;28;20498;-69
2023/12/13 09:52:39;;;;;;;9.73;1.70;;;11.20;99.90;;;;;;5041138;28;20968;-70
2023/12/13 09:55:07;;;;;;;2.77;1.40;;;11.20;99.90;;;;;;5035488;28;20574;-69
2023/12/13 09:57:34;;;;;;;8.60;1.43;;;11.00;99.90;;;;;;5040116;28;20587;-73
2023/12/13 10:00:01;;;;;;;9.27;2.00;;;11.10;99.90;;;;;;5040819;28;20478;-69
2023/12/13 10:02:28;;;;;;;2.73;1.20;;;11.00;99.90;;;;;;5041402;28;20474;-70
2023/12/13 10:04:56;;;;;;;8.10;1.73;;;;;;;;;;5041918;28;20561;-70
2023/12/13 10:07:25;;;;;;;5.47;1.20;;;10.80;99.90;;;;;;5047452;28;20503;-70
2023/12/13 10:09:55;;;;;;;3.43;1.60;;;10.70;99.90;;;;;;5046888;28;21268;-69
2023/12/13 10:12:22;;;;;;;27.07;3.13;;;10.70;99.90;;;;;;5040459;28;20897;-71
2023/12/13 10:14:49;;;;;;;2.60;1.30;;;10.60;99.90;;;;;;5041075;28;20900;-73
2023/12/13 10:17:16;;;;;;;6.87;2.03;;;10.60;99.90;;;;;;5040538;28;21778;-70
2023/12/13 10:19:44;;;;;;;16.37;2.73;;;10.70;99.90;;;;;;5041349;28;20483;-67
2023/12/13 10:22:10;;;;;;;2.30;1.73;;;13.90;99.90;;;;;;5039397;28;20472;-70
2023/12/13 10:24:41;;;;;;;15.30;2.80;;;10.70;99.90;;;;;;5042139;28;20559;-71
2023/12/13 10:27:09;;;;;;;9.63;2.73;;;10.60;99.90;;;;;;5046992;28;20483;-71
2023/12/13 10:29:36;;;;;;;2.90;2.33;;;10.60;99.90;;;;;;5050778;28;20694;-71
2023/12/13 10:32:03;;;;;;;6.80;2.60;;;10.60;99.90;;;;;;5047181;28;20550;-71
2023/12/13 10:34:30;;;;;;;6.27;2.60;;;10.50;99.90;;;;;;5045083;28;20565;-71
2023/12/13 10:36:59;;;;;;;6.07;3.30;;;10.60;99.90;;;;;;5048971;28;20476;-71
2023/12/13 10:39:28;;;;;;;4.70;2.50;;;10.60;99.90;;;;;;5051127;28;20479;-71
2023/12/13 10:41:57;;;;;;;4.00;2.77;;;10.60;99.90;;;;;;5028761;28;20981;-71
2023/12/13 10:44:27;;;;;;;6.50;2.73;;;10.70;99.90;;;;;;5039725;28;20911;-71
2023/12/13 10:46:57;;;;;;;16.50;2.93;;;10.60;99.90;;;;;;5041098;28;20471;-70
2023/12/13 10:49:25;;;;;;;9.00;2.57;;;10.60;99.90;;;;;;5040145;28;20479;-71
2023/12/13 10:51:53;;;;;;;8.73;2.37;;;10.60;99.90;;;;;;5040091;28;20483;-70
2023/12/13 10:54:20;;;;;;;12.73;2.40;;;10.60;99.90;;;;;;5040555;28;20475;-70
2023/12/13 10:56:47;;;;;;;19.37;2.77;;;10.60;99.90;;;;;;5041003;28;20541;-70
2023/12/13 10:59:16;;;;;;;3.63;1.60;;;10.70;99.90;;;;;;5044039;28;20564;-70
2023/12/13 11:01:45;;;;;;;14.17;2.10;;;;;;;;;;5039556;28;20494;-72
2023/12/13 11:04:13;;;;;;;14.00;2.00;;;10.80;99.90;;;;;;5039928;28;20471;-70
2023/12/13 11:06:45;;;;;;;10.83;2.23;;;10.90;99.90;;;;;;5039687;28;20480;-71
2023/12/13 11:09:13;;;;;;;5.27;1.20;;;10.90;99.90;;;;;;5040677;28;21441;-70
2023/12/13 11:11:41;;;;;;;4.37;1.53;;;10.90;99.90;;;;;;5038852;28;20969;-69
2023/12/13 11:14:08;;;;;;;9.50;2.13;;;10.70;99.90;;;;;;5039658;28;20584;-69
2023/12/13 11:16:42;;;;;;;5.90;1.93;;;10.90;99.90;;;;;;5040139;28;20567;-70
2023/12/13 11:19:12;;;;;;;6.33;1.87;;;10.60;99.90;;;;;;5037992;28;20567;-70
2023/12/13 11:21:41;;;;;;;9.30;1.47;;;10.70;99.90;;;;;;5038172;28;20830;-71
2023/12/13 11:24:13;;;;;;;4.27;1.20;;;10.80;99.90;;;;;;5037619;28;20558;-71
2023/12/13 11:26:42;;;;;;;5.47;1.53;;;10.60;99.90;;;;;;5038988;28;20478;-70
2023/12/13 11:29:15;;;;;;;4.93;1.33;;;;;;;;;;5040100;28;20567;-70
2023/12/13 11:31:53;;;;;;;3.03;1.77;;;10.70;99.90;;;;;;5037420;28;20577;-70
2023/12/13 11:34:32;;;;;;;4.83;1.30;;;10.70;99.90;;;;;;5038523;28;20487;-70
2023/12/13 11:37:00;;;;;;;10.30;1.40;;;10.70;99.90;;;;;;5023110;28;20574;-70
2023/12/13 11:39:27;;;;;;;2.87;1.57;;;10.70;99.90;;;;;;5050546;28;20512;-70
2023/12/13 11:41:54;;;;;;;10.30;1.90;;;10.70;99.90;;;;;;5043841;28;20563;-70
2023/12/13 11:44:21;;;;;;;2.80;1.30;;;10.70;99.90;;;;;;5039038;28;20495;-69
2023/12/13 11:46:55;;;;;;;10.90;2.67;;;10.70;99.90;;;;;;5034893;28;20475;-70
2023/12/13 11:49:21;;;;;;;7.53;1.27;;;10.70;99.90;;;;;;5044052;28;20702;-69
2023/12/13 11:51:48;;;;;;;20.17;2.00;;;10.80;99.90;;;;;;5054953;28;20565;-70
2023/12/13 11:54:15;;;;;;;3.83;1.37;;;10.90;99.90;;;;;;5061158;28;20262;-70
2023/12/13 11:56:42;;;;;;;8.37;2.03;;;11.00;99.90;;;;;;5043807;28;20483;-70
2023/12/13 11:59:09;;;;;;;6.90;1.53;;;11.00;99.90;;;;;;5053329;28;20552;-69
2023/12/13 12:01:36;;;;;;;5.40;2.60;;;11.00;99.90;;;;;;5050067;28;20559;-69
2023/12/13 12:04:05;;;;;;;5.63;2.57;;;11.00;99.90;;;;;;5047247;28;20569;-69
2023/12/13 12:06:31;;;;;;;8.87;2.30;;;11.10;99.90;;;;;;5043404;28;20498;-69
2023/12/13 12:09:00;;;;;;;3.90;1.90;;;11.10;99.90;;;;;;5048170;28;20464;-70
2023/12/13 12:11:28;;;;;;;9.23;2.63;;;11.10;99.90;;;;;;5050212;28;20467;-70
2023/12/13 12:13:56;;;;;;;6.57;1.87;;;;;;;;;;5058349;28;20553;-70
2023/12/13 12:16:23;;;;;;;27.20;3.10;;;;;;;;;;5063883;28;20844;-70
2023/12/13 12:18:52;;;;;;;4.00;2.00;;;11.00;99.90;;;;;;5064246;28;20549;-70
2023/12/13 12:21:20;;;;;;;3.50;1.97;;;11.00;99.90;;;;;;5058370;28;20590;-70
2023/12/13 12:23:47;;;;;;;11.63;2.27;;;11.00;99.90;;;;;;5045443;28;20470;-72
2023/12/13 12:26:14;;;;;;;7.20;2.03;;;11.10;99.90;;;;;;5054098;28;20478;-71
2023/12/13 12:28:42;;;;;;;8.70;2.17;;;11.10;99.90;;;;;;5056140;28;20536;-70
2023/12/13 12:31:09;;;;;;;6.13;1.50;;;11.10;99.90;;;;;;5052664;28;20727;-70
2023/12/13 12:33:36;;;;;;;10.40;2.23;;;11.10;99.90;;;;;;5056070;28;20474;-69
2023/12/13 12:36:03;;;;;;;13.53;2.37;;;11.00;99.90;;;;;;5045600;28;20466;-70
2023/12/13 12:38:31;;;;;;;7.97;2.10;;;10.90;99.90;;;;;;5057761;28;20493;-69
2023/12/13 12:40:58;;;;;;;3.27;2.40;;;10.90;99.90;;;;;;5057329;28;20852;-69
2023/12/13 12:43:25;;;;;;;4.43;2.17;;;10.90;99.90;;;;;;5051277;28;20471;-70
2023/12/13 12:45:52;;;;;;;9.50;2.10;;;;;;;;;;5055633;28;20474;-69
2023/12/13 12:48:19;;;;;;;5.30;2.10;;;10.80;99.90;;;;;;5048315;28;20514;-69
2023/12/13 12:50:46;;;;;;;10.90;2.40;;;10.50;99.90;;;;;;5063750;28;20593;-68
2023/12/13 12:53:13;;;;;;;3.63;1.90;;;10.40;99.90;;;;;;5054655;28;20597;-70